sensor_id;sensor_type;location;lat;lon;timestamp;pressure;altitude;pressure_sealevel;temperature;humidity
49723;BME280;43484;43.608;1.458;2023-01-19T00:00:20;99203.53;;;2.86;100.00
49723;BME280;43484;43.608;1.458;2023-01-19T00:02:46;99188.44;;;3.05;100.00
49723;BME280;43484;43.608;1.458;2023-01-19T00:05:13;99203.78;;;2.75;100.00
49723;BME280;43484;43.608;1.458;2023-01-19T00:07:40;99190.69;;;2.83;100.00
49723;BME280;43484;43.608;1.458;2023-01-19T00:10:08;99189.59;;;2.94;100.00
49723;BME280;43484;43.608;1.458;2023-01-19T00:12:35;99175.66;;;3.20;100.00
49723;BME280;43484;43.608;1.458;2023-01-19T00:15:02;99194.72;;;2.96;100.00
49723;BME280;43484;43.608;1.458;2023-01-19T00:17:29;99209.88;;;2.96;100.00
49723;BME280;43484;43.608;1.458;2023-01-19T00:19:56;99208.66;;;2.88;100.00
49723;BME280;43484;43.608;1.458;2023-01-19T00:22:22;99210.88;;;2.82;100.00
49723;BME280;43484;43.608;1.458;2023-01-19T00:24:49;99199.25;;;2.85;100.00
49723;BME280;43484;43.608;1.458;2023-01-19T00:27:15;99197.94;;;2.93;100.00
49723;BME280;43484;43.608;1.458;2023-01-19T00:29:42;99203.84;;;3.10;100.00
49723;BME280;43484;43.608;1.458;2023-01-19T00:32:08;99211.19;;;3.05;100.00
49723;BME280;43484;43.608;1.458;2023-01-19T00:34:35;99216.47;;;2.92;100.00
49723;BME280;43484;43.608;1.458;2023-01-19T00:37:15;99203.25;;;2.98;100.00
49723;BME280;43484;43.608;1.458;2023-01-19T00:39:42;99207.22;;;2.93;100.00
49723;BME280;43484;43.608;1.458;2023-01-19T00:42:12;99204.91;;;2.97;100.00
49723;BME280;43484;43.608;1.458;2023-01-19T00:44:57;99192.50;;;3.19;100.00
49723;BME280;43484;43.608;1.458;2023-01-19T00:47:24;99195.94;;;3.04;100.00
49723;BME280;43484;43.608;1.458;2023-01-19T00:49:50;99203.13;;;2.79;100.00
49723;BME280;43484;43.608;1.458;2023-01-19T00:52:17;99196.22;;;2.92;100.00
49723;BME280;43484;43.608;1.458;2023-01-19T00:54:44;99191.38;;;2.97;100.00
49723;BME280;43484;43.608;1.458;2023-01-19T00:57:10;99193.47;;;3.05;100.00
49723;BME280;43484;43.608;1.458;2023-01-19T00:59:37;99193.41;;;3.04;100.00
49723;BME280;43484;43.608;1.458;2023-01-19T01:02:04;99195.66;;;2.98;100.00
49723;BME280;43484;43.608;1.458;2023-01-19T01:04:31;99184.84;;;3.18;100.00
49723;BME280;43484;43.608;1.458;2023-01-19T01:06:58;99184.03;;;3.01;100.00
49723;BME280;43484;43.608;1.458;2023-01-19T01:09:24;99161.69;;;3.10;100.00
49723;BME280;43484;43.608;1.458;2023-01-19T01:11:51;99155.53;;;3.05;100.00
49723;BME280;43484;43.608;1.458;2023-01-19T01:14:18;99144.34;;;3.00;100.00
49723;BME280;43484;43.608;1.458;2023-01-19T01:16:44;99124.34;;;3.05;100.00
49723;BME280;43484;43.608;1.458;2023-01-19T01:19:11;99120.72;;;3.00;100.00
49723;BME280;43484;43.608;1.458;2023-01-19T01:21:37;99116.00;;;3.07;100.00
49723;BME280;43484;43.608;1.458;2023-01-19T01:24:04;99110.31;;;3.11;100.00
49723;BME280;43484;43.608;1.458;2023-01-19T01:26:31;99116.88;;;3.08;100.00
49723;BME280;43484;43.608;1.458;2023-01-19T01:28:58;99125.91;;;3.03;100.00
49723;BME280;43484;43.608;1.458;2023-01-19T01:31:25;99129.16;;;3.00;100.00
49723;BME280;43484;43.608;1.458;2023-01-19T01:33:51;99126.63;;;3.00;100.00
49723;BME280;43484;43.608;1.458;2023-01-19T01:36:18;99121.28;;;3.48;100.00
49723;BME280;43484;43.608;1.458;2023-01-19T01:38:46;99129.81;;;3.14;100.00
49723;BME280;43484;43.608;1.458;2023-01-19T01:41:13;99130.03;;;3.01;100.00
49723;BME280;43484;43.608;1.458;2023-01-19T01:43:48;99118.03;;;2.97;100.00
49723;BME280;43484;43.608;1.458;2023-01-19T01:46:16;99116.28;;;3.13;100.00
49723;BME280;43484;43.608;1.458;2023-01-19T01:48:56;99117.16;;;3.14;100.00
49723;BME280;43484;43.608;1.458;2023-01-19T01:51:33;99110.44;;;3.14;100.00
49723;BME280;43484;43.608;1.458;2023-01-19T01:56:46;99120.06;;;3.21;100.00
49723;BME280;43484;43.608;1.458;2023-01-19T01:59:20;99125.25;;;3.24;100.00
49723;BME280;43484;43.608;1.458;2023-01-19T02:01:53;99131.66;;;3.35;100.00
49723;BME280;43484;43.608;1.458;2023-01-19T02:04:49;99142.16;;;3.25;100.00
49723;BME280;43484;43.608;1.458;2023-01-19T02:07:30;99145.06;;;3.15;100.00
49723;BME280;43484;43.608;1.458;2023-01-19T02:10:17;99155.25;;;3.17;100.00
49723;BME280;43484;43.608;1.458;2023-01-19T02:13:02;99152.94;;;3.21;100.00
49723;BME280;43484;43.608;1.458;2023-01-19T02:15:49;99155.31;;;3.36;100.00
49723;BME280;43484;43.608;1.458;2023-01-19T02:18:18;99159.38;;;3.15;100.00
49723;BME280;43484;43.608;1.458;2023-01-19T02:21:09;99166.81;;;3.12;100.00
49723;BME280;43484;43.608;1.458;2023-01-19T02:23:41;99157.84;;;3.18;100.00
49723;BME280;43484;43.608;1.458;2023-01-19T02:26:14;99159.44;;;3.51;100.00
49723;BME280;43484;43.608;1.458;2023-01-19T02:28:48;99171.22;;;3.33;100.00
49723;BME280;43484;43.608;1.458;2023-01-19T02:31:16;99165.88;;;3.45;100.00
49723;BME280;43484;43.608;1.458;2023-01-19T02:33:43;99175.31;;;3.66;100.00
49723;BME280;43484;43.608;1.458;2023-01-19T02:36:12;99183.09;;;3.34;100.00
49723;BME280;43484;43.608;1.458;2023-01-19T02:38:41;99197.47;;;3.18;100.00
49723;BME280;43484;43.608;1.458;2023-01-19T02:41:12;99212.66;;;3.18;100.00
49723;BME280;43484;43.608;1.458;2023-01-19T02:43:41;99201.31;;;3.27;100.00
49723;BME280;43484;43.608;1.458;2023-01-19T02:46:09;99205.91;;;3.18;100.00
49723;BME280;43484;43.608;1.458;2023-01-19T02:48:35;99205.16;;;3.19;100.00
49723;BME280;43484;43.608;1.458;2023-01-19T02:51:30;99198.13;;;3.31;100.00
49723;BME280;43484;43.608;1.458;2023-01-19T02:54:27;99205.66;;;3.30;100.00
49723;BME280;43484;43.608;1.458;2023-01-19T02:59:45;99213.03;;;3.08;100.00
49723;BME280;43484;43.608;1.458;2023-01-19T03:10:44;99230.06;;;3.12;100.00
49723;BME280;43484;43.608;1.458;2023-01-19T03:13:24;99226.47;;;3.24;100.00
49723;BME280;43484;43.608;1.458;2023-01-19T03:16:00;99231.53;;;3.24;100.00
49723;BME280;43484;43.608;1.458;2023-01-19T03:18:32;99236.47;;;3.21;100.00
49723;BME280;43484;43.608;1.458;2023-01-19T03:21:04;99229.38;;;3.14;100.00
49723;BME280;43484;43.608;1.458;2023-01-19T03:23:32;99251.03;;;3.09;100.00
49723;BME280;43484;43.608;1.458;2023-01-19T03:26:02;99241.66;;;3.24;100.00
49723;BME280;43484;43.608;1.458;2023-01-19T03:28:31;99240.44;;;3.34;100.00
49723;BME280;43484;43.608;1.458;2023-01-19T03:31:11;99253.56;;;3.27;100.00
49723;BME280;43484;43.608;1.458;2023-01-19T03:33:42;99253.09;;;3.16;100.00
49723;BME280;43484;43.608;1.458;2023-01-19T03:36:17;99253.97;;;3.34;100.00
49723;BME280;43484;43.608;1.458;2023-01-19T03:38:46;99255.47;;;3.31;100.00
49723;BME280;43484;43.608;1.458;2023-01-19T03:41:16;99255.97;;;3.24;100.00
49723;BME280;43484;43.608;1.458;2023-01-19T03:43:47;99261.34;;;3.30;100.00
49723;BME280;43484;43.608;1.458;2023-01-19T03:46:16;99258.16;;;3.16;100.00
49723;BME280;43484;43.608;1.458;2023-01-19T03:48:45;99247.81;;;3.29;100.00
49723;BME280;43484;43.608;1.458;2023-01-19T03:51:12;99255.69;;;3.35;100.00
49723;BME280;43484;43.608;1.458;2023-01-19T03:53:40;99246.50;;;3.20;100.00
49723;BME280;43484;43.608;1.458;2023-01-19T03:56:24;99242.53;;;3.25;100.00
49723;BME280;43484;43.608;1.458;2023-01-19T03:58:51;99248.16;;;3.37;100.00
49723;BME280;43484;43.608;1.458;2023-01-19T04:01:18;99254.38;;;3.26;100.00
49723;BME280;43484;43.608;1.458;2023-01-19T04:03:49;99251.94;;;3.27;100.00
49723;BME280;43484;43.608;1.458;2023-01-19T04:06:16;99253.28;;;3.38;100.00
49723;BME280;43484;43.608;1.458;2023-01-19T04:08:43;99246.59;;;3.21;100.00
49723;BME280;43484;43.608;1.458;2023-01-19T04:11:10;99253.00;;;3.15;100.00
49723;BME280;43484;43.608;1.458;2023-01-19T04:13:36;99253.00;;;3.32;100.00
49723;BME280;43484;43.608;1.458;2023-01-19T04:16:04;99252.94;;;3.31;100.00
49723;BME280;43484;43.608;1.458;2023-01-19T04:18:32;99251.63;;;3.39;100.00
49723;BME280;43484;43.608;1.458;2023-01-19T04:21:05;99261.03;;;3.24;100.00
49723;BME280;43484;43.608;1.458;2023-01-19T04:23:32;99261.09;;;3.25;100.00
49723;BME280;43484;43.608;1.458;2023-01-19T04:26:01;99271.22;;;3.25;100.00
49723;BME280;43484;43.608;1.458;2023-01-19T04:28:28;99273.63;;;3.22;100.00
49723;BME280;43484;43.608;1.458;2023-01-19T04:30:55;99271.88;;;3.21;100.00
49723;BME280;43484;43.608;1.458;2023-01-19T04:33:22;99285.00;;;3.48;100.00
49723;BME280;43484;43.608;1.458;2023-01-19T04:35:50;99290.84;;;3.29;100.00
49723;BME280;43484;43.608;1.458;2023-01-19T04:38:19;99287.50;;;3.30;100.00
49723;BME280;43484;43.608;1.458;2023-01-19T04:40:50;99296.59;;;3.27;100.00
49723;BME280;43484;43.608;1.458;2023-01-19T04:43:18;99299.13;;;3.27;100.00
49723;BME280;43484;43.608;1.458;2023-01-19T04:45:46;99304.13;;;3.25;100.00
49723;BME280;43484;43.608;1.458;2023-01-19T04:48:13;99316.09;;;3.12;100.00
49723;BME280;43484;43.608;1.458;2023-01-19T04:50:41;99306.97;;;3.49;100.00
49723;BME280;43484;43.608;1.458;2023-01-19T04:53:07;99319.09;;;3.21;100.00
49723;BME280;43484;43.608;1.458;2023-01-19T04:55:36;99317.78;;;3.11;100.00
49723;BME280;43484;43.608;1.458;2023-01-19T04:58:02;99322.66;;;3.24;100.00
49723;BME280;43484;43.608;1.458;2023-01-19T05:00:29;99324.28;;;3.24;100.00
49723;BME280;43484;43.608;1.458;2023-01-19T05:02:56;99329.09;;;3.35;100.00
49723;BME280;43484;43.608;1.458;2023-01-19T05:05:23;99334.19;;;3.19;100.00
49723;BME280;43484;43.608;1.458;2023-01-19T05:07:49;99335.56;;;3.46;100.00
49723;BME280;43484;43.608;1.458;2023-01-19T05:10:16;99344.00;;;3.29;100.00
49723;BME280;43484;43.608;1.458;2023-01-19T05:12:43;99345.63;;;3.29;100.00
49723;BME280;43484;43.608;1.458;2023-01-19T05:15:10;99350.63;;;3.27;100.00
49723;BME280;43484;43.608;1.458;2023-01-19T05:17:36;99357.13;;;3.22;100.00
49723;BME280;43484;43.608;1.458;2023-01-19T05:20:03;99351.84;;;3.18;100.00
49723;BME280;43484;43.608;1.458;2023-01-19T05:22:30;99348.75;;;3.07;100.00
49723;BME280;43484;43.608;1.458;2023-01-19T05:24:57;99345.75;;;3.14;100.00
49723;BME280;43484;43.608;1.458;2023-01-19T05:27:24;99353.03;;;3.08;100.00
49723;BME280;43484;43.608;1.458;2023-01-19T05:29:50;99353.34;;;2.98;100.00
49723;BME280;43484;43.608;1.458;2023-01-19T05:32:17;99354.69;;;3.08;100.00
49723;BME280;43484;43.608;1.458;2023-01-19T05:34:44;99342.19;;;3.11;100.00
49723;BME280;43484;43.608;1.458;2023-01-19T05:37:10;99358.06;;;3.08;100.00
49723;BME280;43484;43.608;1.458;2023-01-19T05:39:37;99358.72;;;3.04;100.00
49723;BME280;43484;43.608;1.458;2023-01-19T05:42:03;99380.06;;;2.93;100.00
49723;BME280;43484;43.608;1.458;2023-01-19T05:44:30;99368.81;;;3.20;100.00
49723;BME280;43484;43.608;1.458;2023-01-19T05:46:57;99367.88;;;3.18;100.00
49723;BME280;43484;43.608;1.458;2023-01-19T05:49:23;99375.16;;;3.12;100.00
49723;BME280;43484;43.608;1.458;2023-01-19T05:51:50;99372.22;;;3.21;100.00
49723;BME280;43484;43.608;1.458;2023-01-19T05:54:17;99380.41;;;2.99;100.00
49723;BME280;43484;43.608;1.458;2023-01-19T05:56:44;99371.06;;;2.98;100.00
49723;BME280;43484;43.608;1.458;2023-01-19T05:59:10;99375.66;;;2.89;100.00
49723;BME280;43484;43.608;1.458;2023-01-19T06:01:37;99358.09;;;2.92;100.00
49723;BME280;43484;43.608;1.458;2023-01-19T06:04:05;99365.66;;;3.08;100.00
49723;BME280;43484;43.608;1.458;2023-01-19T06:06:32;99359.44;;;3.02;100.00
49723;BME280;43484;43.608;1.458;2023-01-19T06:08:58;99362.53;;;2.96;100.00
49723;BME280;43484;43.608;1.458;2023-01-19T06:11:25;99366.00;;;2.98;100.00
49723;BME280;43484;43.608;1.458;2023-01-19T06:13:51;99364.88;;;2.93;100.00
49723;BME280;43484;43.608;1.458;2023-01-19T06:16:18;99365.44;;;3.20;100.00
49723;BME280;43484;43.608;1.458;2023-01-19T06:18:45;99367.91;;;3.02;100.00
49723;BME280;43484;43.608;1.458;2023-01-19T06:21:11;99371.31;;;3.03;100.00
49723;BME280;43484;43.608;1.458;2023-01-19T06:23:39;99361.88;;;3.00;100.00
49723;BME280;43484;43.608;1.458;2023-01-19T06:26:06;99366.94;;;3.00;100.00
49723;BME280;43484;43.608;1.458;2023-01-19T06:28:33;99369.31;;;2.97;100.00
49723;BME280;43484;43.608;1.458;2023-01-19T06:31:00;99373.19;;;3.07;100.00
49723;BME280;43484;43.608;1.458;2023-01-19T06:33:27;99375.72;;;3.23;100.00
49723;BME280;43484;43.608;1.458;2023-01-19T06:35:54;99369.78;;;3.22;100.00
49723;BME280;43484;43.608;1.458;2023-01-19T06:38:21;99374.88;;;3.06;100.00
49723;BME280;43484;43.608;1.458;2023-01-19T06:40:54;99374.06;;;3.07;100.00
49723;BME280;43484;43.608;1.458;2023-01-19T06:43:21;99370.19;;;3.47;100.00
49723;BME280;43484;43.608;1.458;2023-01-19T06:45:48;99382.59;;;3.09;100.00
49723;BME280;43484;43.608;1.458;2023-01-19T06:48:16;99391.78;;;3.07;100.00
49723;BME280;43484;43.608;1.458;2023-01-19T06:50:46;99396.53;;;3.01;100.00
49723;BME280;43484;43.608;1.458;2023-01-19T06:53:15;99400.25;;;3.08;100.00
49723;BME280;43484;43.608;1.458;2023-01-19T06:55:42;99402.84;;;3.09;100.00
49723;BME280;43484;43.608;1.458;2023-01-19T06:58:09;99399.91;;;3.02;100.00
49723;BME280;43484;43.608;1.458;2023-01-19T07:00:36;99401.91;;;3.07;100.00
49723;BME280;43484;43.608;1.458;2023-01-19T07:03:05;99399.91;;;3.02;100.00
49723;BME280;43484;43.608;1.458;2023-01-19T07:05:35;99403.16;;;3.15;100.00
49723;BME280;43484;43.608;1.458;2023-01-19T07:08:02;99403.00;;;3.12;100.00
49723;BME280;43484;43.608;1.458;2023-01-19T07:10:29;99399.13;;;3.19;100.00
49723;BME280;43484;43.608;1.458;2023-01-19T07:13:16;99399.34;;;3.23;100.00
49723;BME280;43484;43.608;1.458;2023-01-19T07:15:43;99407.50;;;3.18;100.00
49723;BME280;43484;43.608;1.458;2023-01-19T07:18:09;99410.28;;;3.22;100.00
49723;BME280;43484;43.608;1.458;2023-01-19T07:20:36;99410.28;;;3.22;100.00
49723;BME280;43484;43.608;1.458;2023-01-19T07:23:03;99419.84;;;3.12;100.00
49723;BME280;43484;43.608;1.458;2023-01-19T07:25:30;99412.81;;;3.22;100.00
49723;BME280;43484;43.608;1.458;2023-01-19T07:27:59;99414.84;;;3.29;100.00
49723;BME280;43484;43.608;1.458;2023-01-19T07:30:27;99423.16;;;3.27;100.00
49723;BME280;43484;43.608;1.458;2023-01-19T07:32:55;99426.94;;;3.19;100.00
49723;BME280;43484;43.608;1.458;2023-01-19T07:35:24;99427.28;;;3.25;100.00
49723;BME280;43484;43.608;1.458;2023-01-19T07:37:50;99427.75;;;3.18;100.00
49723;BME280;43484;43.608;1.458;2023-01-19T07:40:17;99434.78;;;3.23;100.00
49723;BME280;43484;43.608;1.458;2023-01-19T07:42:48;99437.16;;;3.36;100.00
49723;BME280;43484;43.608;1.458;2023-01-19T07:45:16;99439.69;;;3.36;100.00
49723;BME280;43484;43.608;1.458;2023-01-19T07:47:43;99437.50;;;3.26;100.00
49723;BME280;43484;43.608;1.458;2023-01-19T07:50:11;99440.31;;;3.32;100.00
49723;BME280;43484;43.608;1.458;2023-01-19T07:52:39;99436.97;;;3.49;100.00
49723;BME280;43484;43.608;1.458;2023-01-19T07:55:06;99444.28;;;3.27;100.00
49723;BME280;43484;43.608;1.458;2023-01-19T07:57:33;99446.78;;;3.43;100.00
49723;BME280;43484;43.608;1.458;2023-01-19T08:00:00;99447.44;;;3.23;100.00
49723;BME280;43484;43.608;1.458;2023-01-19T08:02:27;99453.28;;;3.38;100.00
49723;BME280;43484;43.608;1.458;2023-01-19T08:04:53;99453.50;;;3.27;100.00
49723;BME280;43484;43.608;1.458;2023-01-19T08:07:21;99462.47;;;3.36;100.00
49723;BME280;43484;43.608;1.458;2023-01-19T08:09:47;99465.53;;;3.47;100.00
49723;BME280;43484;43.608;1.458;2023-01-19T08:12:14;99470.28;;;3.41;100.00
49723;BME280;43484;43.608;1.458;2023-01-19T08:14:40;99468.66;;;3.41;100.00
49723;BME280;43484;43.608;1.458;2023-01-19T08:17:11;99470.28;;;3.41;100.00
49723;BME280;43484;43.608;1.458;2023-01-19T08:19:38;99466.50;;;3.49;100.00
49723;BME280;43484;43.608;1.458;2023-01-19T08:22:06;99478.38;;;3.50;100.00
49723;BME280;43484;43.608;1.458;2023-01-19T08:24:33;99485.47;;;3.57;100.00
49723;BME280;43484;43.608;1.458;2023-01-19T08:27:01;99490.94;;;3.48;100.00
49723;BME280;43484;43.608;1.458;2023-01-19T08:29:28;99493.47;;;3.48;100.00
49723;BME280;43484;43.608;1.458;2023-01-19T08:31:57;99493.06;;;3.41;100.00
49723;BME280;43484;43.608;1.458;2023-01-19T08:34:25;99493.94;;;3.57;100.00
49723;BME280;43484;43.608;1.458;2023-01-19T08:36:52;99493.00;;;3.71;100.00
49723;BME280;43484;43.608;1.458;2023-01-19T08:39:19;99502.81;;;3.49;100.00
49723;BME280;43484;43.608;1.458;2023-01-19T08:41:46;99499.47;;;3.50;100.00
49723;BME280;43484;43.608;1.458;2023-01-19T08:44:12;99496.94;;;3.50;100.00
49723;BME280;43484;43.608;1.458;2023-01-19T08:46:39;99506.66;;;3.59;100.00
49723;BME280;43484;43.608;1.458;2023-01-19T08:49:06;99504.53;;;3.50;100.00
49723;BME280;43484;43.608;1.458;2023-01-19T08:51:32;99512.91;;;3.65;100.00
49723;BME280;43484;43.608;1.458;2023-01-19T08:53:59;99512.16;;;3.66;100.00
49723;BME280;43484;43.608;1.458;2023-01-19T08:56:26;99512.84;;;3.64;100.00
49723;BME280;43484;43.608;1.458;2023-01-19T08:58:53;99517.47;;;3.88;100.00
49723;BME280;43484;43.608;1.458;2023-01-19T09:01:33;99525.94;;;4.05;100.00
49723;BME280;43484;43.608;1.458;2023-01-19T09:04:00;99527.59;;;3.88;100.00
49723;BME280;43484;43.608;1.458;2023-01-19T09:06:27;99531.09;;;3.91;100.00
49723;BME280;43484;43.608;1.458;2023-01-19T09:08:54;99536.16;;;3.91;100.00
49723;BME280;43484;43.608;1.458;2023-01-19T09:11:20;99538.38;;;4.01;100.00
49723;BME280;43484;43.608;1.458;2023-01-19T09:13:47;99538.44;;;4.02;100.00
49723;BME280;43484;43.608;1.458;2023-01-19T09:16:14;99539.66;;;4.26;100.00
49723;BME280;43484;43.608;1.458;2023-01-19T09:18:41;99542.81;;;4.38;100.00
49723;BME280;43484;43.608;1.458;2023-01-19T09:21:08;99537.72;;;4.56;100.00
49723;BME280;43484;43.608;1.458;2023-01-19T09:23:35;99546.72;;;4.67;100.00
49723;BME280;43484;43.608;1.458;2023-01-19T09:26:03;99558.00;;;4.56;100.00
49723;BME280;43484;43.608;1.458;2023-01-19T09:28:30;99559.69;;;4.73;100.00
49723;BME280;43484;43.608;1.458;2023-01-19T09:30:57;99584.97;;;4.54;100.00
49723;BME280;43484;43.608;1.458;2023-01-19T09:33:24;99586.72;;;4.55;100.00
49723;BME280;43484;43.608;1.458;2023-01-19T09:35:51;99579.53;;;4.64;100.00
49723;BME280;43484;43.608;1.458;2023-01-19T09:38:19;99591.41;;;4.47;100.00
49723;BME280;43484;43.608;1.458;2023-01-19T09:40:54;99589.06;;;4.68;100.00
49723;BME280;43484;43.608;1.458;2023-01-19T09:43:35;99583.41;;;4.91;100.00
49723;BME280;43484;43.608;1.458;2023-01-19T09:46:12;99586.94;;;4.94;100.00
49723;BME280;43484;43.608;1.458;2023-01-19T09:51:20;99599.56;;;4.93;100.00
49723;BME280;43484;43.608;1.458;2023-01-19T09:56:22;99607.81;;;4.89;100.00
49723;BME280;43484;43.608;1.458;2023-01-19T09:58:50;99601.50;;;5.16;100.00
49723;BME280;43484;43.608;1.458;2023-01-19T10:01:36;99599.84;;;5.17;100.00
49723;BME280;43484;43.608;1.458;2023-01-19T10:04:21;99601.31;;;5.11;100.00
49723;BME280;43484;43.608;1.458;2023-01-19T10:06:56;99601.81;;;5.04;100.00
49723;BME280;43484;43.608;1.458;2023-01-19T10:12:41;99592.44;;;5.21;100.00
49723;BME280;43484;43.608;1.458;2023-01-19T10:18:06;99602.53;;;5.20;100.00
49723;BME280;43484;43.608;1.458;2023-01-19T10:20:55;99607.03;;;5.25;100.00
49723;BME280;43484;43.608;1.458;2023-01-19T10:26:22;99596.38;;;5.32;100.00
49723;BME280;43484;43.608;1.458;2023-01-19T10:32:07;99576.34;;;5.76;100.00
49723;BME280;43484;43.608;1.458;2023-01-19T10:34:33;99579.69;;;5.75;100.00
49723;BME280;43484;43.608;1.458;2023-01-19T10:37:24;99587.34;;;5.39;100.00
49723;BME280;43484;43.608;1.458;2023-01-19T10:39:57;99578.50;;;5.67;100.00
49723;BME280;43484;43.608;1.458;2023-01-19T10:42:26;99562.78;;;5.76;100.00
49723;BME280;43484;43.608;1.458;2023-01-19T10:44:54;99563.97;;;6.03;100.00
49723;BME280;43484;43.608;1.458;2023-01-19T10:47:28;99567.13;;;5.78;100.00
49723;BME280;43484;43.608;1.458;2023-01-19T10:49:56;99568.03;;;5.61;100.00
49723;BME280;43484;43.608;1.458;2023-01-19T10:52:29;99555.00;;;5.73;100.00
49723;BME280;43484;43.608;1.458;2023-01-19T10:55:00;99556.81;;;5.75;100.00
49723;BME280;43484;43.608;1.458;2023-01-19T10:57:30;99555.50;;;5.64;100.00
49723;BME280;43484;43.608;1.458;2023-01-19T10:59:58;99549.91;;;5.73;100.00
49723;BME280;43484;43.608;1.458;2023-01-19T11:02:29;99553.38;;;5.92;100.00
49723;BME280;43484;43.608;1.458;2023-01-19T11:05:20;99544.63;;;6.06;100.00
49723;BME280;43484;43.608;1.458;2023-01-19T11:07:48;99541.44;;;5.72;100.00
49723;BME280;43484;43.608;1.458;2023-01-19T11:15:27;99537.88;;;6.07;100.00
49723;BME280;43484;43.608;1.458;2023-01-19T11:17:55;99535.19;;;5.83;100.00
49723;BME280;43484;43.608;1.458;2023-01-19T11:20:25;99527.97;;;5.92;100.00
49723;BME280;43484;43.608;1.458;2023-01-19T11:25:48;99502.97;;;6.23;100.00
49723;BME280;43484;43.608;1.458;2023-01-19T11:28:36;99503.78;;;6.43;100.00
49723;BME280;43484;43.608;1.458;2023-01-19T11:36:53;99502.91;;;6.01;100.00
49723;BME280;43484;43.608;1.458;2023-01-19T11:39:24;99488.44;;;6.19;100.00
49723;BME280;43484;43.608;1.458;2023-01-19T11:41:55;99489.28;;;6.41;100.00
49723;BME280;43484;43.608;1.458;2023-01-19T11:44:32;99494.47;;;6.23;100.00
49723;BME280;43484;43.608;1.458;2023-01-19T11:47:08;99482.00;;;6.08;100.00
49723;BME280;43484;43.608;1.458;2023-01-19T11:52:26;99456.81;;;6.56;100.00
49723;BME280;43484;43.608;1.458;2023-01-19T11:54:59;99463.41;;;6.30;100.00
49723;BME280;43484;43.608;1.458;2023-01-19T11:57:27;99447.19;;;6.28;100.00
49723;BME280;43484;43.608;1.458;2023-01-19T11:59:54;99443.75;;;6.26;100.00
49723;BME280;43484;43.608;1.458;2023-01-19T12:02:28;99430.31;;;6.51;100.00
49723;BME280;43484;43.608;1.458;2023-01-19T12:05:03;99423.03;;;6.38;100.00
49723;BME280;43484;43.608;1.458;2023-01-19T12:07:34;99416.19;;;6.59;100.00
49723;BME280;43484;43.608;1.458;2023-01-19T12:10:24;99420.53;;;6.39;100.00
49723;BME280;43484;43.608;1.458;2023-01-19T12:12:52;99415.94;;;6.30;100.00
49723;BME280;43484;43.608;1.458;2023-01-19T12:15:28;99410.19;;;6.34;100.00
49723;BME280;43484;43.608;1.458;2023-01-19T12:17:59;99406.44;;;6.47;100.00
49723;BME280;43484;43.608;1.458;2023-01-19T12:20:39;99399.25;;;6.37;100.00
49723;BME280;43484;43.608;1.458;2023-01-19T12:25:57;99389.28;;;6.43;100.00
49723;BME280;43484;43.608;1.458;2023-01-19T12:28:29;99384.16;;;6.42;100.00
49723;BME280;43484;43.608;1.458;2023-01-19T12:30:58;99373.81;;;6.81;100.00
49723;BME280;43484;43.608;1.458;2023-01-19T12:33:36;99374.69;;;6.83;100.00
49723;BME280;43484;43.608;1.458;2023-01-19T12:43:42;99353.47;;;6.59;100.00
49723;BME280;43484;43.608;1.458;2023-01-19T12:48:52;99345.09;;;6.40;100.00
49723;BME280;43484;43.608;1.458;2023-01-19T12:51:25;99335.81;;;6.42;100.00
49723;BME280;43484;43.608;1.458;2023-01-19T12:53:54;99329.75;;;6.38;100.00
49723;BME280;43484;43.608;1.458;2023-01-19T12:56:28;99322.16;;;6.62;100.00
49723;BME280;43484;43.608;1.458;2023-01-19T12:58:56;99317.84;;;6.59;100.00
49723;BME280;43484;43.608;1.458;2023-01-19T13:01:23;99315.41;;;6.40;100.00
49723;BME280;43484;43.608;1.458;2023-01-19T13:04:04;99304.25;;;6.36;100.00
49723;BME280;43484;43.608;1.458;2023-01-19T13:09:43;99309.38;;;6.60;100.00
49723;BME280;43484;43.608;1.458;2023-01-19T13:14:42;99298.63;;;6.67;100.00
49723;BME280;43484;43.608;1.458;2023-01-19T13:17:25;99289.13;;;6.40;100.00
49723;BME280;43484;43.608;1.458;2023-01-19T13:19:59;99282.66;;;6.25;100.00
49723;BME280;43484;43.608;1.458;2023-01-19T13:25:12;99273.09;;;6.42;100.00
49723;BME280;43484;43.608;1.458;2023-01-19T13:27:47;99268.88;;;6.43;100.00
49723;BME280;43484;43.608;1.458;2023-01-19T13:30:16;99261.94;;;6.38;100.00
49723;BME280;43484;43.608;1.458;2023-01-19T13:32:46;99254.59;;;6.46;100.00
49723;BME280;43484;43.608;1.458;2023-01-19T13:35:16;99250.34;;;6.23;100.00
49723;BME280;43484;43.608;1.458;2023-01-19T13:37:44;99236.25;;;6.31;100.00
49723;BME280;43484;43.608;1.458;2023-01-19T13:40:23;99233.03;;;6.36;100.00
49723;BME280;43484;43.608;1.458;2023-01-19T13:42:52;99225.78;;;6.23;100.00
49723;BME280;43484;43.608;1.458;2023-01-19T13:45:33;99208.81;;;6.22;100.00
49723;BME280;43484;43.608;1.458;2023-01-19T13:48:05;99198.28;;;6.37;100.00
49723;BME280;43484;43.608;1.458;2023-01-19T13:50:35;99194.19;;;6.41;100.00
49723;BME280;43484;43.608;1.458;2023-01-19T13:53:16;99184.00;;;6.41;100.00
49723;BME280;43484;43.608;1.458;2023-01-19T13:55:43;99176.03;;;6.31;100.00
49723;BME280;43484;43.608;1.458;2023-01-19T13:58:20;99172.22;;;6.19;100.00
49723;BME280;43484;43.608;1.458;2023-01-19T14:00:47;99160.03;;;6.10;100.00
49723;BME280;43484;43.608;1.458;2023-01-19T14:03:16;99146.75;;;6.17;100.00
49723;BME280;43484;43.608;1.458;2023-01-19T14:05:43;99129.53;;;6.10;100.00
49723;BME280;43484;43.608;1.458;2023-01-19T14:08:13;99105.91;;;6.38;100.00
49723;BME280;43484;43.608;1.458;2023-01-19T14:13:23;99092.13;;;6.31;100.00
49723;BME280;43484;43.608;1.458;2023-01-19T14:15:54;99081.44;;;6.42;100.00
49723;BME280;43484;43.608;1.458;2023-01-19T14:18:25;99073.75;;;6.40;100.00
49723;BME280;43484;43.608;1.458;2023-01-19T14:32:14;99028.03;;;6.16;100.00
49723;BME280;43484;43.608;1.458;2023-01-19T14:42:46;98978.19;;;6.48;100.00
49723;BME280;43484;43.608;1.458;2023-01-19T14:45:27;98980.81;;;6.50;100.00